createdAt,value
2018-09-28T00:01:33.902Z,4.27
2018-09-28T00:04:02.346Z,3.97
2018-09-28T00:06:30.874Z,4.73
2018-09-28T00:08:59.352Z,4.90
2018-09-28T00:11:27.927Z,4.10
2018-09-28T00:13:56.438Z,6.57
2018-09-28T00:16:24.885Z,3.20
2018-09-28T00:18:53.283Z,3.87
2018-09-28T00:21:21.808Z,8.87
2018-09-28T00:23:50.283Z,4.77
2018-09-28T00:26:18.711Z,4.20
2018-09-28T00:28:47.189Z,9.40
2018-09-28T00:31:15.651Z,3.87
2018-09-28T00:33:44.263Z,9.43
2018-09-28T00:36:12.710Z,4.70
2018-09-28T00:38:41.144Z,3.53
2018-09-28T00:41:09.520Z,6.50
2018-09-28T00:43:37.939Z,6.47
2018-09-28T00:46:06.374Z,3.10
2018-09-28T00:48:34.755Z,5.20
2018-09-28T00:51:03.335Z,3.67
2018-09-28T00:53:31.779Z,3.93
2018-09-28T00:56:00.187Z,3.57
2018-09-28T00:58:28.643Z,3.60
2018-09-28T01:00:57.163Z,3.73
2018-09-28T01:03:25.666Z,3.70
2018-09-28T01:05:54.828Z,3.17
2018-09-28T01:08:23.407Z,3.50
2018-09-28T01:10:51.868Z,3.60
2018-09-28T01:13:20.348Z,6.50
2018-09-28T01:15:48.850Z,3.23
2018-09-28T01:18:17.295Z,3.20
2018-09-28T01:20:45.742Z,4.73
2018-09-28T01:23:14.215Z,4.77
2018-09-28T01:25:42.633Z,6.63
2018-09-28T01:28:11.075Z,4.03
2018-09-28T01:30:39.486Z,4.03
2018-09-28T01:33:07.917Z,4.03
2018-09-28T01:35:36.491Z,3.30
2018-09-28T01:38:04.980Z,4.13
2018-09-28T01:40:33.470Z,4.10
2018-09-28T01:43:01.924Z,5.90
2018-09-28T01:45:30.387Z,5.20
2018-09-28T01:47:58.782Z,3.37
2018-09-28T01:50:27.223Z,6.33
2018-09-28T01:52:56.083Z,3.23
2018-09-28T01:55:24.619Z,4.13
2018-09-28T01:57:53.159Z,3.30
2018-09-28T02:00:21.639Z,4.90
2018-09-28T02:02:50.134Z,7.60
2018-09-28T02:05:18.923Z,3.40
2018-09-28T02:07:47.415Z,3.90
2018-09-28T02:10:15.819Z,3.50
2018-09-28T02:12:44.336Z,4.17
2018-09-28T02:15:12.836Z,2.73
2018-09-28T02:17:41.278Z,3.40
2018-09-28T02:20:09.727Z,3.13
2018-09-28T02:22:38.198Z,3.23
2018-09-28T02:25:06.706Z,3.80
2018-09-28T02:27:35.211Z,3.40
2018-09-28T02:30:03.699Z,3.53
2018-09-28T02:32:32.162Z,4.80
2018-09-28T02:35:00.631Z,6.60
2018-09-28T02:37:29.106Z,3.50
2018-09-28T02:39:57.567Z,3.93
2018-09-28T02:42:26.002Z,4.33
2018-09-28T02:44:54.531Z,6.47
2018-09-28T02:47:23.019Z,3.50
2018-09-28T02:49:51.563Z,3.40
2018-09-28T02:52:19.958Z,3.37
2018-09-28T02:54:48.482Z,3.73
2018-09-28T02:57:17.016Z,3.70
2018-09-28T02:59:45.486Z,3.50
2018-09-28T03:02:13.947Z,3.20
2018-09-28T03:04:42.367Z,4.00
2018-09-28T03:07:10.871Z,4.30
2018-09-28T03:09:39.263Z,5.63
2018-09-28T03:12:08.030Z,4.17
2018-09-28T03:14:36.435Z,3.93
2018-09-28T03:17:04.931Z,4.00
2018-09-28T03:19:33.450Z,3.30
2018-09-28T03:22:01.962Z,3.93
2018-09-28T03:24:30.462Z,4.60
2018-09-28T03:26:58.943Z,4.60
2018-09-28T03:29:27.416Z,3.30
2018-09-28T03:31:55.838Z,3.43
2018-09-28T03:34:24.302Z,4.93
2018-09-28T03:36:52.715Z,3.30
2018-09-28T03:39:21.115Z,3.30
2018-09-28T03:41:49.527Z,4.47
2018-09-28T03:44:17.971Z,4.03
2018-09-28T03:46:46.467Z,3.33
2018-09-28T03:49:14.915Z,3.67
2018-09-28T03:51:43.331Z,4.33
2018-09-28T03:54:11.727Z,5.20
2018-09-28T03:56:40.250Z,4.47
2018-09-28T03:59:08.824Z,4.20
2018-09-28T04:01:37.247Z,4.50
2018-09-28T04:04:05.755Z,7.03
2018-09-28T04:06:34.214Z,3.70
2018-09-28T04:09:02.727Z,3.60
2018-09-28T04:11:31.211Z,3.50
2018-09-28T04:13:59.686Z,4.50
2018-09-28T04:16:28.114Z,3.93
2018-09-28T04:18:56.619Z,5.00
2018-09-28T04:21:25.252Z,3.83
2018-09-28T04:23:53.759Z,3.40
2018-09-28T04:26:23.041Z,4.53
2018-09-28T04:28:51.461Z,4.20
2018-09-28T04:31:20.215Z,3.83
2018-09-28T04:33:48.737Z,3.93
2018-09-28T04:36:17.251Z,7.20
2018-09-28T04:38:45.763Z,3.80
2018-09-28T04:41:14.315Z,6.70
2018-09-28T04:43:42.830Z,3.70
2018-09-28T04:46:11.582Z,5.57
2018-09-28T04:48:40.301Z,3.13
2018-09-28T04:51:08.882Z,3.23
2018-09-28T04:53:37.310Z,3.03
2018-09-28T04:56:05.986Z,4.07
2018-09-28T04:58:34.506Z,10.13
2018-09-28T05:01:02.991Z,4.27
2018-09-28T05:03:31.520Z,4.70
2018-09-28T05:05:59.930Z,6.47
2018-09-28T05:08:28.398Z,5.80
2018-09-28T05:10:56.939Z,4.77
2018-09-28T05:13:25.387Z,4.13
2018-09-28T05:15:53.843Z,5.40
2018-09-28T05:18:22.627Z,10.43
2018-09-28T05:20:51.067Z,5.23
2018-09-28T05:23:19.571Z,5.17
2018-09-28T05:25:48.203Z,4.63
2018-09-28T05:28:16.627Z,6.67
2018-09-28T05:30:45.484Z,4.47
2018-09-28T05:33:13.899Z,7.90
2018-09-28T05:35:42.639Z,5.03
2018-09-28T05:38:11.590Z,5.97
2018-09-28T05:40:40.598Z,5.30
2018-09-28T05:43:09.363Z,4.00
2018-09-28T05:45:37.842Z,5.43
2018-09-28T05:48:05.871Z,4.90
2018-09-28T05:50:34.304Z,10.10
2018-09-28T05:53:02.820Z,5.57
2018-09-28T05:55:31.563Z,7.20
2018-09-28T05:58:05.301Z,5.93
2018-09-28T06:00:39.086Z,5.33
2018-09-28T06:03:14.419Z,6.97
2018-09-28T06:05:44.351Z,7.57
2018-09-28T06:08:13.570Z,9.53
2018-09-28T06:10:42.150Z,4.90
2018-09-28T06:13:10.706Z,5.13
2018-09-28T06:15:39.270Z,11.27
2018-09-28T06:18:07.699Z,8.40
2018-09-28T06:20:36.372Z,5.70
2018-09-28T06:23:05.351Z,5.63
2018-09-28T06:25:33.982Z,7.50
2018-09-28T06:28:02.780Z,5.20
2018-09-28T06:30:31.291Z,14.50
2018-09-28T06:32:59.813Z,8.00
2018-09-28T06:35:28.474Z,7.57
2018-09-28T06:37:56.922Z,10.50
2018-09-28T06:40:25.331Z,7.83
2018-09-28T06:42:53.938Z,8.13
2018-09-28T06:45:22.631Z,12.40
2018-09-28T06:47:51.082Z,15.03
2018-09-28T06:50:19.571Z,7.43
2018-09-28T06:52:48.055Z,11.90
2018-09-28T06:55:16.571Z,10.73
2018-09-28T06:57:45.054Z,7.47
2018-09-28T07:00:13.768Z,26.17
2018-09-28T07:02:42.230Z,6.87
2018-09-28T07:05:11.051Z,10.67
2018-09-28T07:07:39.467Z,15.83
2018-09-28T07:10:08.359Z,7.83
2018-09-28T07:12:36.995Z,28.50
2018-09-28T07:15:06.191Z,10.50
2018-09-28T07:17:34.600Z,7.30
2018-09-28T07:20:03.321Z,9.50
2018-09-28T07:22:31.739Z,7.00
2018-09-28T07:25:00.200Z,7.60
2018-09-28T07:27:28.610Z,7.57
2018-09-28T07:29:57.222Z,7.63
2018-09-28T07:32:25.627Z,7.60
2018-09-28T07:34:54.382Z,11.17
2018-09-28T07:37:22.860Z,17.13
2018-09-28T07:39:51.243Z,7.20
2018-09-28T07:42:19.958Z,6.87
2018-09-28T07:44:48.323Z,7.10
2018-09-28T07:47:16.727Z,7.73
2018-09-28T07:49:45.177Z,9.63
2018-09-28T07:52:13.651Z,20.10
2018-09-28T07:54:42.090Z,8.90
2018-09-28T07:57:10.543Z,16.47
2018-09-28T07:59:39.044Z,10.00
2018-09-28T08:02:08.302Z,8.63
2018-09-28T08:04:36.850Z,10.13
2018-09-28T08:07:05.315Z,11.17
2018-09-28T08:09:33.829Z,19.67
2018-09-28T08:12:02.379Z,9.77
2018-09-28T08:14:30.893Z,12.10
2018-09-28T08:16:59.298Z,11.77
2018-09-28T08:19:27.931Z,15.10
2018-09-28T08:21:56.398Z,13.93
2018-09-28T08:24:24.810Z,21.00
2018-09-28T08:26:53.383Z,19.77
2018-09-28T08:29:21.894Z,20.77
2018-09-28T08:31:50.311Z,25.20
2018-09-28T08:34:18.887Z,21.23
2018-09-28T08:36:47.340Z,29.67
2018-09-28T08:39:15.851Z,29.43
2018-09-28T08:41:44.665Z,27.40
2018-09-28T08:44:13.155Z,23.03
2018-09-28T08:46:41.543Z,19.63
2018-09-28T08:49:10.372Z,18.97
2018-09-28T08:51:38.815Z,22.87
2018-09-28T08:54:07.468Z,16.53
2018-09-28T08:56:36.087Z,20.07
2018-09-28T08:59:04.642Z,23.40
2018-09-28T09:01:33.235Z,22.83
2018-09-28T09:04:02.284Z,26.80
2018-09-28T09:06:30.850Z,18.47
2018-09-28T09:08:59.303Z,25.60
2018-09-28T09:11:28.060Z,22.70
2018-09-28T09:13:56.486Z,18.60
2018-09-28T09:16:25.352Z,20.77
2018-09-28T09:18:53.855Z,18.03
2018-09-28T09:21:22.308Z,25.70
2018-09-28T09:23:50.834Z,23.93
2018-09-28T09:26:19.313Z,21.33
2018-09-28T09:28:47.755Z,31.80
2018-09-28T09:31:16.195Z,19.63
2018-09-28T09:33:45.071Z,19.63
2018-09-28T09:36:13.579Z,19.33
2018-09-28T09:38:42.127Z,22.90
2018-09-28T09:41:10.967Z,24.37
2018-09-28T09:43:39.461Z,24.43
2018-09-28T09:46:07.943Z,22.43
2018-09-28T09:48:36.659Z,17.87
2018-09-28T09:51:05.166Z,25.00
2018-09-28T09:53:33.667Z,20.03
2018-09-28T09:56:02.154Z,23.60
2018-09-28T09:58:30.627Z,21.50
2018-09-28T10:01:06.335Z,17.87
2018-09-28T10:03:40.498Z,23.63
2018-09-28T10:06:10.390Z,21.90
2018-09-28T10:08:38.959Z,19.70
2018-09-28T10:11:07.594Z,16.90
2018-09-28T10:13:36.201Z,21.40
2018-09-28T10:16:04.854Z,21.70
2018-09-28T10:18:33.356Z,20.23
2018-09-28T10:21:02.191Z,22.63
2018-09-28T10:23:30.657Z,16.13
2018-09-28T10:25:59.153Z,20.30
2018-09-28T10:28:27.895Z,16.50
2018-09-28T10:30:56.398Z,19.10
2018-09-28T10:33:24.877Z,18.43
2018-09-28T10:35:53.451Z,16.33
2018-09-28T10:38:21.916Z,12.70
2018-09-28T10:40:50.424Z,18.37
2018-09-28T10:43:19.246Z,14.40
2018-09-28T10:45:47.784Z,11.10
2018-09-28T10:48:16.294Z,15.37
2018-09-28T10:50:44.794Z,15.43
2018-09-28T10:53:13.394Z,16.63
2018-09-28T10:55:41.775Z,16.33
2018-09-28T10:58:10.270Z,13.27
2018-09-28T11:00:38.726Z,12.20
2018-09-28T11:03:07.251Z,10.03
2018-09-28T11:05:35.839Z,14.43
2018-09-28T11:08:04.322Z,14.03
2018-09-28T11:10:32.784Z,11.40
2018-09-28T11:13:01.465Z,23.17
2018-09-28T11:15:30.012Z,11.73
2018-09-28T11:17:58.455Z,13.03
2018-09-28T11:20:26.994Z,15.80
2018-09-28T11:22:55.468Z,9.93
2018-09-28T11:25:24.015Z,11.03
2018-09-28T11:27:53.730Z,13.30
2018-09-28T11:30:22.346Z,11.30
2018-09-28T11:32:51.015Z,10.43
2018-09-28T11:35:19.663Z,7.90
2018-09-28T11:37:48.282Z,8.90
2018-09-28T11:40:17.294Z,18.10
2018-09-28T11:42:48.527Z,16.07
2018-09-28T11:45:20.552Z,7.83
2018-09-28T11:47:50.126Z,8.57
2018-09-28T11:50:18.700Z,12.90
2018-09-28T11:52:47.502Z,7.60
2018-09-28T11:55:16.003Z,7.47
2018-09-28T11:57:44.611Z,7.30
2018-09-28T12:00:13.083Z,9.37
2018-09-28T12:02:41.607Z,10.20
2018-09-28T12:05:10.196Z,7.10
2018-09-28T12:07:38.594Z,11.97
2018-09-28T12:10:07.191Z,5.23
2018-09-28T12:12:36.389Z,4.67
2018-09-28T12:15:05.047Z,4.50
2018-09-28T12:17:33.572Z,9.30
2018-09-28T12:20:02.023Z,6.43
2018-09-28T12:22:30.492Z,6.00
2018-09-28T12:24:58.894Z,7.20
2018-09-28T12:27:27.510Z,14.07
2018-09-28T12:29:55.884Z,6.17
2018-09-28T12:32:24.424Z,5.97
2018-09-28T12:34:52.870Z,8.93
2018-09-28T12:37:21.523Z,5.70
2018-09-28T12:39:50.169Z,10.60
2018-09-28T12:42:19.741Z,6.63
2018-09-28T12:44:48.315Z,3.87
2018-09-28T12:47:16.759Z,5.03
2018-09-28T12:49:45.282Z,5.23
2018-09-28T12:52:13.940Z,3.63
2018-09-28T12:54:42.438Z,7.73
2018-09-28T12:57:10.859Z,9.20
2018-09-28T12:59:39.336Z,6.43
2018-09-28T13:02:07.947Z,8.57
2018-09-28T13:04:36.354Z,5.40
2018-09-28T13:07:04.815Z,4.43
2018-09-28T13:09:33.339Z,5.20
2018-09-28T13:12:01.979Z,14.10
2018-09-28T13:14:30.503Z,10.73
2018-09-28T13:16:58.959Z,8.13
2018-09-28T13:19:27.529Z,7.50
2018-09-28T13:21:56.003Z,13.47
2018-09-28T13:24:24.877Z,9.23
2018-09-28T13:26:53.294Z,6.43
2018-09-28T13:29:22.366Z,5.53
2018-09-28T13:31:51.060Z,12.13
2018-09-28T13:34:19.640Z,4.33
2018-09-28T13:36:48.203Z,9.20
2018-09-28T13:39:16.649Z,8.37
2018-09-28T13:41:45.069Z,6.13
2018-09-28T13:44:13.657Z,4.20
2018-09-28T13:46:42.129Z,4.53
2018-09-28T13:49:10.555Z,4.77
2018-09-28T13:51:39.177Z,5.23
2018-09-28T13:54:08.775Z,4.80
2018-09-28T13:56:37.382Z,3.93
2018-09-28T13:59:05.923Z,5.03
2018-09-28T14:01:35.668Z,15.90
2018-09-28T14:04:04.187Z,6.77
2018-09-28T14:06:32.698Z,8.13
2018-09-28T14:09:01.130Z,9.13
2018-09-28T14:11:34.709Z,5.23
2018-09-28T14:14:03.310Z,4.77
2018-09-28T14:16:31.782Z,4.50
2018-09-28T14:19:01.125Z,14.83
2018-09-28T14:21:29.705Z,14.40
2018-09-28T14:23:58.171Z,5.53
2018-09-28T14:26:26.826Z,12.20
2018-09-28T14:29:05.325Z,4.30
2018-09-28T14:31:33.763Z,6.40
2018-09-28T14:34:02.367Z,10.67
2018-09-28T14:36:30.918Z,5.93
2018-09-28T14:38:59.376Z,7.07
2018-09-28T14:41:28.179Z,10.43
2018-09-28T14:43:56.707Z,12.43
2018-09-28T14:46:25.201Z,8.17
2018-09-28T14:48:53.749Z,5.03
2018-09-28T14:51:22.119Z,8.27
2018-09-28T14:53:50.635Z,8.13
2018-09-28T14:56:19.302Z,10.63
2018-09-28T14:58:47.826Z,8.27
2018-09-28T15:01:16.436Z,10.50
2018-09-28T15:03:44.763Z,13.77
2018-09-28T15:06:13.223Z,6.40
2018-09-28T15:08:41.797Z,11.20
2018-09-28T15:11:10.431Z,9.80
2018-09-28T15:13:38.967Z,14.60
2018-09-28T15:16:07.580Z,16.87
2018-09-28T15:18:36.214Z,8.53
2018-09-28T15:21:04.795Z,17.40
2018-09-28T15:23:33.264Z,14.10
2018-09-28T15:26:01.834Z,14.97
2018-09-28T15:28:30.304Z,20.03
2018-09-28T15:30:58.815Z,23.57
2018-09-28T15:33:27.308Z,20.63
2018-09-28T15:35:55.971Z,18.33
2018-09-28T15:38:24.517Z,16.93
2018-09-28T15:40:53.748Z,13.63
2018-09-28T15:43:23.447Z,20.50
2018-09-28T15:45:51.920Z,16.30
2018-09-28T15:48:20.474Z,19.47
2018-09-28T15:50:48.971Z,15.93
2018-09-28T15:53:17.674Z,15.33
2018-09-28T15:55:46.230Z,16.07
2018-09-28T15:58:14.690Z,15.80
2018-09-28T16:00:43.202Z,9.37
2018-09-28T16:03:11.805Z,10.20
2018-09-28T16:05:40.391Z,8.33
2018-09-28T16:08:08.988Z,8.60
2018-09-28T16:10:37.599Z,4.83
2018-09-28T16:13:06.159Z,4.63
2018-09-28T16:15:34.891Z,3.17
2018-09-28T16:18:04.547Z,3.37
2018-09-28T16:20:34.527Z,2.77
2018-09-28T16:23:02.955Z,2.50
2018-09-28T16:25:31.666Z,2.30
2018-09-28T16:28:00.654Z,2.50
2018-09-28T16:30:29.149Z,3.40
2018-09-28T16:32:57.802Z,4.20
2018-09-28T16:35:26.248Z,4.30
2018-09-28T16:37:55.719Z,3.30
2018-09-28T16:40:24.577Z,3.77
2018-09-28T16:42:53.303Z,4.50
2018-09-28T16:45:22.875Z,8.37
2018-09-28T16:47:51.393Z,5.30
2018-09-28T16:50:19.909Z,11.63
2018-09-28T16:52:48.423Z,4.50
2018-09-28T16:55:17.889Z,2.83
2018-09-28T16:57:46.533Z,2.00
2018-09-28T17:00:14.997Z,5.47
2018-09-28T17:02:43.601Z,4.53
2018-09-28T17:05:13.004Z,6.23
2018-09-28T17:07:43.097Z,4.40
2018-09-28T17:10:12.061Z,6.20
2018-09-28T17:12:40.829Z,4.33
2018-09-28T17:15:09.746Z,4.20
2018-09-28T17:17:38.299Z,4.33
2018-09-28T17:20:07.060Z,6.60
2018-09-28T17:22:35.763Z,7.50
2018-09-28T17:25:04.427Z,3.27
2018-09-28T17:27:33.021Z,2.53
2018-09-28T17:30:01.711Z,6.20
2018-09-28T17:32:30.209Z,3.73
2018-09-28T17:34:58.792Z,4.50
2018-09-28T17:37:27.249Z,2.50
2018-09-28T17:39:56.572Z,3.80
2018-09-28T17:42:25.411Z,4.80
2018-09-28T17:44:53.983Z,7.53
2018-09-28T17:47:22.477Z,2.70
2018-09-28T17:49:51.216Z,2.97
2018-09-28T17:52:20.851Z,3.70
2018-09-28T17:54:49.380Z,6.23
2018-09-28T17:57:18.066Z,1.70
2018-09-28T17:59:47.535Z,4.70
2018-09-28T18:02:16.059Z,4.80
2018-09-28T18:04:44.543Z,3.10
2018-09-28T18:07:13.223Z,6.37
2018-09-28T18:09:42.075Z,6.77
2018-09-28T18:12:10.663Z,3.10
2018-09-28T18:14:39.343Z,3.23
2018-09-28T18:17:07.984Z,3.63
2018-09-28T18:19:36.516Z,2.40
2018-09-28T18:22:05.541Z,7.40
2018-09-28T18:24:34.720Z,2.70
2018-09-28T18:27:03.343Z,3.80
2018-09-28T18:29:31.890Z,4.60
2018-09-28T18:32:00.478Z,5.33
2018-09-28T18:34:29.045Z,5.37
2018-09-28T18:36:58.169Z,2.37
2018-09-28T18:39:27.075Z,9.73
2018-09-28T18:41:55.972Z,7.73
2018-09-28T18:44:24.670Z,3.57
2018-09-28T18:46:53.182Z,2.20
2018-09-28T18:49:21.858Z,1.83
2018-09-28T18:51:50.487Z,3.83
2018-09-28T18:54:19.115Z,3.13
2018-09-28T18:56:47.655Z,7.37
2018-09-28T18:59:16.191Z,7.40
2018-09-28T19:01:44.932Z,3.27
2018-09-28T19:04:13.571Z,2.20
2018-09-28T19:06:42.384Z,4.53
2018-09-28T19:09:12.473Z,2.10
2018-09-28T19:11:42.409Z,2.07
2018-09-28T19:14:11.593Z,2.47
2018-09-28T19:16:40.167Z,5.17
2018-09-28T19:19:08.921Z,2.33
2018-09-28T19:21:39.142Z,6.73
2018-09-28T19:24:08.153Z,7.17
2018-09-28T19:26:36.771Z,4.60
2018-09-28T19:29:05.411Z,3.97
2018-09-28T19:31:34.121Z,4.40
2018-09-28T19:34:02.692Z,5.73
2018-09-28T19:36:31.411Z,2.50
2018-09-28T19:39:00.042Z,2.00
2018-09-28T19:41:29.550Z,4.43
2018-09-28T19:43:58.098Z,4.70
2018-09-28T19:46:26.650Z,4.50
2018-09-28T19:48:55.131Z,5.93
2018-09-28T19:51:23.758Z,5.33
2018-09-28T19:53:52.851Z,5.50
2018-09-28T19:56:22.381Z,5.20
2018-09-28T19:58:51.561Z,5.97
2018-09-28T20:01:20.684Z,6.93
2018-09-28T20:03:49.227Z,6.20
2018-09-28T20:06:18.040Z,1.60
2018-09-28T20:08:46.543Z,1.80
2018-09-28T20:11:15.070Z,8.93
2018-09-28T20:13:44.338Z,4.50
2018-09-28T20:16:13.096Z,2.83
2018-09-28T20:18:41.952Z,10.00
2018-09-28T20:21:10.619Z,8.33
2018-09-28T20:23:40.586Z,3.23
2018-09-28T20:26:09.590Z,12.47
2018-09-28T20:28:39.215Z,1.70
2018-09-28T20:31:08.290Z,7.30
2018-09-28T20:33:36.764Z,5.67
2018-09-28T20:36:05.405Z,4.87
2018-09-28T20:38:35.353Z,8.43
2018-09-28T20:41:03.847Z,3.33
2018-09-28T20:43:33.413Z,10.20
2018-09-28T20:46:01.891Z,5.80
2018-09-28T20:48:30.479Z,12.90
2018-09-28T20:50:59.219Z,4.93
2018-09-28T20:53:28.264Z,4.90
2018-09-28T20:55:56.910Z,3.63
2018-09-28T20:58:26.280Z,6.90
2018-09-28T21:00:54.814Z,10.60
2018-09-28T21:03:23.240Z,9.10
2018-09-28T21:05:52.958Z,9.80
2018-09-28T21:08:21.647Z,4.63
2018-09-28T21:10:50.749Z,8.20
2018-09-28T21:13:19.364Z,17.00
2018-09-28T21:15:47.907Z,9.70
2018-09-28T21:18:16.443Z,4.57
2018-09-28T21:20:45.047Z,17.03
2018-09-28T21:23:13.766Z,6.20
2018-09-28T21:25:42.399Z,6.90
2018-09-28T21:28:10.931Z,1.97
2018-09-28T21:30:39.887Z,6.80
2018-09-28T21:33:10.052Z,5.67
2018-09-28T21:35:38.704Z,6.10
2018-09-28T21:38:07.481Z,10.73
2018-09-28T21:40:35.962Z,5.03
2018-09-28T21:43:04.521Z,17.70
2018-09-28T21:45:33.662Z,4.60
2018-09-28T21:48:02.088Z,11.50
2018-09-28T21:50:30.603Z,5.83
2018-09-28T21:52:59.063Z,12.40
2018-09-28T21:55:27.688Z,5.37
2018-09-28T21:57:56.140Z,7.30
2018-09-28T22:00:24.931Z,4.77
2018-09-28T22:02:53.506Z,5.37
2018-09-28T22:05:22.040Z,5.33
2018-09-28T22:07:50.491Z,10.67
2018-09-28T22:10:19.199Z,3.17
2018-09-28T22:12:47.711Z,3.93
2018-09-28T22:15:16.131Z,10.10
2018-09-28T22:17:44.761Z,7.40
2018-09-28T22:20:13.222Z,4.60
2018-09-28T22:22:41.701Z,9.07
2018-09-28T22:25:10.516Z,9.90
2018-09-28T22:27:39.048Z,3.30
2018-09-28T22:30:07.627Z,9.23
2018-09-28T22:32:36.174Z,2.33
2018-09-28T22:35:04.857Z,4.10
2018-09-28T22:37:33.444Z,7.63
2018-09-28T22:40:01.923Z,12.57
2018-09-28T22:42:30.459Z,10.17
2018-09-28T22:44:58.991Z,9.40
2018-09-28T22:47:27.479Z,3.17
2018-09-28T22:49:56.024Z,15.77
2018-09-28T22:52:24.571Z,11.77
2018-09-28T22:54:53.053Z,6.97
2018-09-28T22:57:21.579Z,5.70
2018-09-28T22:59:50.035Z,5.00
2018-09-28T23:02:18.539Z,10.37
2018-09-28T23:04:47.066Z,12.10
2018-09-28T23:07:15.535Z,3.47
2018-09-28T23:09:44.042Z,4.37
2018-09-28T23:12:12.571Z,4.40
2018-09-28T23:14:40.998Z,3.40
2018-09-28T23:17:09.515Z,5.50
2018-09-28T23:19:38.159Z,14.87
2018-09-28T23:22:06.776Z,3.70
2018-09-28T23:24:35.312Z,8.60
2018-09-28T23:27:03.767Z,4.93
2018-09-28T23:29:32.322Z,3.90
2018-09-28T23:32:00.719Z,4.43
2018-09-28T23:34:29.180Z,4.83
2018-09-28T23:36:57.585Z,4.07
2018-09-28T23:39:26.054Z,3.20
2018-09-28T23:41:54.564Z,3.50
2018-09-28T23:44:23.002Z,10.00
2018-09-28T23:46:51.400Z,3.30
2018-09-28T23:49:19.900Z,3.00
2018-09-28T23:51:48.347Z,3.10
2018-09-28T23:54:16.815Z,5.93
2018-09-28T23:56:45.324Z,4.33
2018-09-28T23:59:13.798Z,6.80
